sensor_id;sensor_type;location;lat;lon;timestamp;temperature;humidity
9118;DHT22;4594;50.994;7.126;2023-02-01T00:02:17;9.20;60.00
9118;DHT22;4594;50.994;7.126;2023-02-01T00:04:43;9.20;59.90
9118;DHT22;4594;50.994;7.126;2023-02-01T00:07:08;9.20;59.90
9118;DHT22;4594;50.994;7.126;2023-02-01T00:09:34;9.20;59.90
9118;DHT22;4594;50.994;7.126;2023-02-01T00:12:00;9.20;59.70
9118;DHT22;4594;50.994;7.126;2023-02-01T00:14:27;9.20;59.60
9118;DHT22;4594;50.994;7.126;2023-02-01T00:16:53;9.20;59.50
9118;DHT22;4594;50.994;7.126;2023-02-01T00:19:19;9.20;59.40
9118;DHT22;4594;50.994;7.126;2023-02-01T00:21:44;9.20;59.30
9118;DHT22;4594;50.994;7.126;2023-02-01T00:24:11;9.20;59.10
9118;DHT22;4594;50.994;7.126;2023-02-01T00:26:40;9.20;59.00
9118;DHT22;4594;50.994;7.126;2023-02-01T00:29:13;9.20;58.90
9118;DHT22;4594;50.994;7.126;2023-02-01T00:31:41;9.20;58.60
9118;DHT22;4594;50.994;7.126;2023-02-01T00:34:11;9.20;58.90
9118;DHT22;4594;50.994;7.126;2023-02-01T00:36:40;9.20;58.70
9118;DHT22;4594;50.994;7.126;2023-02-01T00:39:06;9.20;58.70
9118;DHT22;4594;50.994;7.126;2023-02-01T00:41:32;9.20;58.70
9118;DHT22;4594;50.994;7.126;2023-02-01T00:43:58;9.20;58.70
9118;DHT22;4594;50.994;7.126;2023-02-01T00:46:24;9.20;58.80
9118;DHT22;4594;50.994;7.126;2023-02-01T00:48:50;9.20;58.80
9118;DHT22;4594;50.994;7.126;2023-02-01T00:51:19;9.20;58.80
9118;DHT22;4594;50.994;7.126;2023-02-01T00:53:47;9.10;58.60
9118;DHT22;4594;50.994;7.126;2023-02-01T00:56:13;9.20;58.80
9118;DHT22;4594;50.994;7.126;2023-02-01T00:58:39;9.10;58.60
9118;DHT22;4594;50.994;7.126;2023-02-01T01:01:22;9.10;58.50
9118;DHT22;4594;50.994;7.126;2023-02-01T01:03:55;9.10;57.80
9118;DHT22;4594;50.994;7.126;2023-02-01T01:06:33;9.10;58.00
9118;DHT22;4594;50.994;7.126;2023-02-01T01:09:01;9.10;57.60
9118;DHT22;4594;50.994;7.126;2023-02-01T01:11:31;9.10;58.10
9118;DHT22;4594;50.994;7.126;2023-02-01T01:13:59;9.10;57.90
9118;DHT22;4594;50.994;7.126;2023-02-01T01:16:27;9.10;57.90
9118;DHT22;4594;50.994;7.126;2023-02-01T01:18:55;9.00;57.70
9118;DHT22;4594;50.994;7.126;2023-02-01T01:21:21;9.00;57.60
9118;DHT22;4594;50.994;7.126;2023-02-01T01:23:47;9.00;57.80
9118;DHT22;4594;50.994;7.126;2023-02-01T01:26:22;9.00;57.40
9118;DHT22;4594;50.994;7.126;2023-02-01T01:28:49;8.90;56.90
9118;DHT22;4594;50.994;7.126;2023-02-01T01:31:16;8.90;57.40
9118;DHT22;4594;50.994;7.126;2023-02-01T01:33:42;8.90;57.40
9118;DHT22;4594;50.994;7.126;2023-02-01T01:36:10;8.90;57.50
9118;DHT22;4594;50.994;7.126;2023-02-01T01:38:38;8.90;57.50
9118;DHT22;4594;50.994;7.126;2023-02-01T01:41:05;8.90;57.50
9118;DHT22;4594;50.994;7.126;2023-02-01T01:43:51;8.90;57.50
9118;DHT22;4594;50.994;7.126;2023-02-01T01:48:56;8.90;57.30
9118;DHT22;4594;50.994;7.126;2023-02-01T01:51:50;8.90;56.90
9118;DHT22;4594;50.994;7.126;2023-02-01T01:54:27;8.80;56.20
9118;DHT22;4594;50.994;7.126;2023-02-01T01:56:58;8.80;56.40
9118;DHT22;4594;50.994;7.126;2023-02-01T01:59:27;8.80;56.80
9118;DHT22;4594;50.994;7.126;2023-02-01T02:01:55;8.80;56.90
9118;DHT22;4594;50.994;7.126;2023-02-01T02:04:21;8.80;56.70
9118;DHT22;4594;50.994;7.126;2023-02-01T02:07:03;8.80;56.70
9118;DHT22;4594;50.994;7.126;2023-02-01T02:09:33;8.80;56.00
9118;DHT22;4594;50.994;7.126;2023-02-01T02:11:59;8.70;56.40
9118;DHT22;4594;50.994;7.126;2023-02-01T02:14:26;8.70;56.30
9118;DHT22;4594;50.994;7.126;2023-02-01T02:19:41;8.70;55.70
9118;DHT22;4594;50.994;7.126;2023-02-01T02:22:38;8.70;55.50
9118;DHT22;4594;50.994;7.126;2023-02-01T02:34:35;8.60;55.20
9118;DHT22;4594;50.994;7.126;2023-02-01T02:43:23;8.50;55.60
9118;DHT22;4594;50.994;7.126;2023-02-01T02:46:31;8.50;55.60
9118;DHT22;4594;50.994;7.126;2023-02-01T02:49:42;8.50;55.30
9118;DHT22;4594;50.994;7.126;2023-02-01T02:52:40;8.50;55.20
9118;DHT22;4594;50.994;7.126;2023-02-01T02:55:30;8.50;56.00
9118;DHT22;4594;50.994;7.126;2023-02-01T02:58:02;8.50;56.30
9118;DHT22;4594;50.994;7.126;2023-02-01T03:00:50;8.50;56.20
9118;DHT22;4594;50.994;7.126;2023-02-01T03:03:38;8.50;56.20
9118;DHT22;4594;50.994;7.126;2023-02-01T03:06:23;8.50;56.10
9118;DHT22;4594;50.994;7.126;2023-02-01T03:08:50;8.50;56.30
9118;DHT22;4594;50.994;7.126;2023-02-01T03:11:22;8.50;56.30
9118;DHT22;4594;50.994;7.126;2023-02-01T03:13:50;8.50;56.20
9118;DHT22;4594;50.994;7.126;2023-02-01T03:16:35;8.50;56.20
9118;DHT22;4594;50.994;7.126;2023-02-01T03:19:19;8.50;55.10
9118;DHT22;4594;50.994;7.126;2023-02-01T03:22:03;8.50;55.80
9118;DHT22;4594;50.994;7.126;2023-02-01T03:24:37;8.50;55.90
9118;DHT22;4594;50.994;7.126;2023-02-01T03:27:28;8.50;55.90
9118;DHT22;4594;50.994;7.126;2023-02-01T03:32:26;8.50;55.80
9118;DHT22;4594;50.994;7.126;2023-02-01T03:34:52;8.50;56.20
9118;DHT22;4594;50.994;7.126;2023-02-01T03:37:27;8.50;56.10
9118;DHT22;4594;50.994;7.126;2023-02-01T03:40:03;8.50;55.30
9118;DHT22;4594;50.994;7.126;2023-02-01T03:42:54;8.50;55.60
9118;DHT22;4594;50.994;7.126;2023-02-01T03:45:27;8.50;55.20
9118;DHT22;4594;50.994;7.126;2023-02-01T03:48:02;8.50;55.50
9118;DHT22;4594;50.994;7.126;2023-02-01T03:50:30;8.50;55.90
9118;DHT22;4594;50.994;7.126;2023-02-01T03:53:02;8.50;56.10
9118;DHT22;4594;50.994;7.126;2023-02-01T03:55:32;8.50;55.80
9118;DHT22;4594;50.994;7.126;2023-02-01T03:58:15;8.50;56.20
9118;DHT22;4594;50.994;7.126;2023-02-01T04:01:01;8.50;55.20
9118;DHT22;4594;50.994;7.126;2023-02-01T04:03:27;8.50;55.00
9118;DHT22;4594;50.994;7.126;2023-02-01T04:05:53;8.50;56.10
9118;DHT22;4594;50.994;7.126;2023-02-01T04:08:20;8.50;56.20
9118;DHT22;4594;50.994;7.126;2023-02-01T04:10:46;8.50;56.20
9118;DHT22;4594;50.994;7.126;2023-02-01T04:13:12;8.50;56.20
9118;DHT22;4594;50.994;7.126;2023-02-01T04:15:38;8.50;56.20
9118;DHT22;4594;50.994;7.126;2023-02-01T04:18:04;8.50;56.20
9118;DHT22;4594;50.994;7.126;2023-02-01T04:20:30;8.60;56.30
9118;DHT22;4594;50.994;7.126;2023-02-01T04:22:55;8.60;56.40
9118;DHT22;4594;50.994;7.126;2023-02-01T04:25:21;8.60;56.40
9118;DHT22;4594;50.994;7.126;2023-02-01T04:27:47;8.60;56.30
9118;DHT22;4594;50.994;7.126;2023-02-01T04:30:13;8.60;56.30
9118;DHT22;4594;50.994;7.126;2023-02-01T04:32:39;8.60;56.30
9118;DHT22;4594;50.994;7.126;2023-02-01T04:35:06;8.60;56.20
9118;DHT22;4594;50.994;7.126;2023-02-01T04:37:32;8.60;56.20
9118;DHT22;4594;50.994;7.126;2023-02-01T04:39:58;8.60;56.20
9118;DHT22;4594;50.994;7.126;2023-02-01T04:42:24;8.60;56.50
9118;DHT22;4594;50.994;7.126;2023-02-01T04:44:49;8.70;56.30
9118;DHT22;4594;50.994;7.126;2023-02-01T04:47:15;8.70;56.20
9118;DHT22;4594;50.994;7.126;2023-02-01T04:49:41;8.70;56.00
9118;DHT22;4594;50.994;7.126;2023-02-01T04:52:07;8.70;55.80
9118;DHT22;4594;50.994;7.126;2023-02-01T04:54:33;8.70;55.50
9118;DHT22;4594;50.994;7.126;2023-02-01T04:56:59;8.60;55.10
9118;DHT22;4594;50.994;7.126;2023-02-01T04:59:25;8.60;54.90
9118;DHT22;4594;50.994;7.126;2023-02-01T05:01:51;8.50;54.60
9118;DHT22;4594;50.994;7.126;2023-02-01T05:04:17;8.50;54.40
9118;DHT22;4594;50.994;7.126;2023-02-01T05:06:44;8.40;54.30
9118;DHT22;4594;50.994;7.126;2023-02-01T05:09:10;8.40;54.50
9118;DHT22;4594;50.994;7.126;2023-02-01T05:11:36;8.30;54.10
9118;DHT22;4594;50.994;7.126;2023-02-01T05:14:20;8.30;54.10
9118;DHT22;4594;50.994;7.126;2023-02-01T05:16:46;8.20;54.10
9118;DHT22;4594;50.994;7.126;2023-02-01T05:19:11;8.20;54.20
9118;DHT22;4594;50.994;7.126;2023-02-01T05:21:38;8.10;54.20
9118;DHT22;4594;50.994;7.126;2023-02-01T05:24:04;8.10;54.40
9118;DHT22;4594;50.994;7.126;2023-02-01T05:26:36;8.10;54.60
9118;DHT22;4594;50.994;7.126;2023-02-01T05:29:03;8.10;54.60
9118;DHT22;4594;50.994;7.126;2023-02-01T05:31:29;8.10;54.70
9118;DHT22;4594;50.994;7.126;2023-02-01T05:33:55;8.10;54.70
9118;DHT22;4594;50.994;7.126;2023-02-01T05:36:21;8.00;54.60
9118;DHT22;4594;50.994;7.126;2023-02-01T05:38:47;8.00;54.50
9118;DHT22;4594;50.994;7.126;2023-02-01T05:41:12;8.00;54.70
9118;DHT22;4594;50.994;7.126;2023-02-01T05:43:38;8.00;54.30
9118;DHT22;4594;50.994;7.126;2023-02-01T05:46:04;7.90;54.20
9118;DHT22;4594;50.994;7.126;2023-02-01T05:48:30;7.90;54.10
9118;DHT22;4594;50.994;7.126;2023-02-01T05:50:55;7.90;54.20
9118;DHT22;4594;50.994;7.126;2023-02-01T05:53:21;7.90;54.30
9118;DHT22;4594;50.994;7.126;2023-02-01T05:55:47;7.90;54.50
9118;DHT22;4594;50.994;7.126;2023-02-01T05:58:12;7.90;54.70
9118;DHT22;4594;50.994;7.126;2023-02-01T06:00:38;7.90;54.70
9118;DHT22;4594;50.994;7.126;2023-02-01T06:03:05;7.90;54.90
9118;DHT22;4594;50.994;7.126;2023-02-01T06:05:31;7.90;55.20
9118;DHT22;4594;50.994;7.126;2023-02-01T06:07:57;7.90;55.50
9118;DHT22;4594;50.994;7.126;2023-02-01T06:10:23;8.00;55.70
9118;DHT22;4594;50.994;7.126;2023-02-01T06:12:49;8.00;55.90
9118;DHT22;4594;50.994;7.126;2023-02-01T06:15:15;8.10;55.90
9118;DHT22;4594;50.994;7.126;2023-02-01T06:17:43;8.10;55.90
9118;DHT22;4594;50.994;7.126;2023-02-01T06:20:11;8.20;55.90
9118;DHT22;4594;50.994;7.126;2023-02-01T06:22:39;8.20;55.80
9118;DHT22;4594;50.994;7.126;2023-02-01T06:25:07;8.30;55.70
9118;DHT22;4594;50.994;7.126;2023-02-01T06:27:34;8.30;55.60
9118;DHT22;4594;50.994;7.126;2023-02-01T06:30:04;8.30;55.50
9118;DHT22;4594;50.994;7.126;2023-02-01T06:32:31;8.30;55.30
9118;DHT22;4594;50.994;7.126;2023-02-01T06:34:56;8.40;55.50
9118;DHT22;4594;50.994;7.126;2023-02-01T06:37:23;8.40;55.50
9118;DHT22;4594;50.994;7.126;2023-02-01T06:39:50;8.40;55.40
9118;DHT22;4594;50.994;7.126;2023-02-01T06:42:16;8.40;55.40
9118;DHT22;4594;50.994;7.126;2023-02-01T06:44:42;8.50;55.50
9118;DHT22;4594;50.994;7.126;2023-02-01T06:47:08;8.50;55.50
9118;DHT22;4594;50.994;7.126;2023-02-01T06:49:33;8.50;55.50
9118;DHT22;4594;50.994;7.126;2023-02-01T06:51:59;8.50;55.50
9118;DHT22;4594;50.994;7.126;2023-02-01T06:54:26;8.50;55.50
9118;DHT22;4594;50.994;7.126;2023-02-01T06:56:52;8.60;55.50
9118;DHT22;4594;50.994;7.126;2023-02-01T06:59:17;8.60;55.50
9118;DHT22;4594;50.994;7.126;2023-02-01T07:01:43;8.60;55.50
9118;DHT22;4594;50.994;7.126;2023-02-01T07:04:13;8.60;55.50
9118;DHT22;4594;50.994;7.126;2023-02-01T07:06:39;8.70;55.30
9118;DHT22;4594;50.994;7.126;2023-02-01T07:09:05;8.70;55.40
9118;DHT22;4594;50.994;7.126;2023-02-01T07:11:32;8.70;55.50
9118;DHT22;4594;50.994;7.126;2023-02-01T07:13:58;8.70;55.40
9118;DHT22;4594;50.994;7.126;2023-02-01T07:16:24;8.70;55.40
9118;DHT22;4594;50.994;7.126;2023-02-01T07:18:51;8.70;55.40
9118;DHT22;4594;50.994;7.126;2023-02-01T07:21:18;8.70;55.20
9118;DHT22;4594;50.994;7.126;2023-02-01T07:23:45;8.80;55.60
9118;DHT22;4594;50.994;7.126;2023-02-01T07:26:13;8.80;55.40
9118;DHT22;4594;50.994;7.126;2023-02-01T07:28:39;8.80;55.10
9118;DHT22;4594;50.994;7.126;2023-02-01T07:31:17;8.80;55.30
9118;DHT22;4594;50.994;7.126;2023-02-01T07:33:46;8.90;54.20
9118;DHT22;4594;50.994;7.126;2023-02-01T07:36:16;8.80;55.20
9118;DHT22;4594;50.994;7.126;2023-02-01T07:38:42;8.80;54.90
9118;DHT22;4594;50.994;7.126;2023-02-01T07:41:08;8.90;55.30
9118;DHT22;4594;50.994;7.126;2023-02-01T07:43:35;8.90;55.30
9118;DHT22;4594;50.994;7.126;2023-02-01T07:46:02;8.90;55.30
9118;DHT22;4594;50.994;7.126;2023-02-01T07:48:29;8.90;55.20
9118;DHT22;4594;50.994;7.126;2023-02-01T07:51:00;8.80;55.20
9118;DHT22;4594;50.994;7.126;2023-02-01T07:53:28;8.90;54.70
9118;DHT22;4594;50.994;7.126;2023-02-01T07:55:55;9.00;55.20
9118;DHT22;4594;50.994;7.126;2023-02-01T07:58:24;9.00;55.20
9118;DHT22;4594;50.994;7.126;2023-02-01T08:00:51;9.00;55.20
9118;DHT22;4594;50.994;7.126;2023-02-01T08:03:43;9.00;55.10
9118;DHT22;4594;50.994;7.126;2023-02-01T08:06:08;9.00;55.10
9118;DHT22;4594;50.994;7.126;2023-02-01T08:08:34;9.10;55.10
9118;DHT22;4594;50.994;7.126;2023-02-01T08:11:02;9.00;55.10
9118;DHT22;4594;50.994;7.126;2023-02-01T08:13:29;9.00;54.90
9118;DHT22;4594;50.994;7.126;2023-02-01T08:15:59;9.00;55.10
9118;DHT22;4594;50.994;7.126;2023-02-01T08:18:27;9.10;54.60
9118;DHT22;4594;50.994;7.126;2023-02-01T08:20:52;9.10;55.10
9118;DHT22;4594;50.994;7.126;2023-02-01T08:23:19;9.10;55.10
9118;DHT22;4594;50.994;7.126;2023-02-01T08:25:45;9.10;55.10
9118;DHT22;4594;50.994;7.126;2023-02-01T08:28:12;9.10;55.00
9118;DHT22;4594;50.994;7.126;2023-02-01T08:30:38;9.10;55.00
9118;DHT22;4594;50.994;7.126;2023-02-01T08:33:05;9.10;55.00
9118;DHT22;4594;50.994;7.126;2023-02-01T08:35:37;9.10;54.90
9118;DHT22;4594;50.994;7.126;2023-02-01T08:38:04;9.10;54.30
9118;DHT22;4594;50.994;7.126;2023-02-01T08:40:31;9.10;54.80
9118;DHT22;4594;50.994;7.126;2023-02-01T08:42:57;9.10;54.80
9118;DHT22;4594;50.994;7.126;2023-02-01T08:45:27;9.10;54.80
9118;DHT22;4594;50.994;7.126;2023-02-01T08:47:55;9.20;54.30
9118;DHT22;4594;50.994;7.126;2023-02-01T08:50:22;9.10;54.70
9118;DHT22;4594;50.994;7.126;2023-02-01T08:52:49;9.20;54.80
9118;DHT22;4594;50.994;7.126;2023-02-01T08:55:15;9.20;54.90
9118;DHT22;4594;50.994;7.126;2023-02-01T08:57:42;9.20;54.90
9118;DHT22;4594;50.994;7.126;2023-02-01T09:00:12;9.20;54.90
9118;DHT22;4594;50.994;7.126;2023-02-01T09:02:40;9.20;54.70
9118;DHT22;4594;50.994;7.126;2023-02-01T09:05:06;9.20;55.00
9118;DHT22;4594;50.994;7.126;2023-02-01T09:07:33;9.20;55.00
9118;DHT22;4594;50.994;7.126;2023-02-01T09:09:59;9.20;55.00
9118;DHT22;4594;50.994;7.126;2023-02-01T09:12:30;9.30;55.10
9118;DHT22;4594;50.994;7.126;2023-02-01T09:14:57;9.30;55.10
9118;DHT22;4594;50.994;7.126;2023-02-01T09:17:25;9.30;54.90
9118;DHT22;4594;50.994;7.126;2023-02-01T09:19:52;9.30;54.90
9118;DHT22;4594;50.994;7.126;2023-02-01T09:22:18;9.30;54.90
9118;DHT22;4594;50.994;7.126;2023-02-01T09:24:44;9.40;55.00
9118;DHT22;4594;50.994;7.126;2023-02-01T09:27:10;9.40;55.10
9118;DHT22;4594;50.994;7.126;2023-02-01T09:29:35;9.40;55.00
9118;DHT22;4594;50.994;7.126;2023-02-01T09:32:01;9.40;55.00
9118;DHT22;4594;50.994;7.126;2023-02-01T09:34:27;9.50;55.00
9118;DHT22;4594;50.994;7.126;2023-02-01T09:36:53;9.50;55.00
9118;DHT22;4594;50.994;7.126;2023-02-01T09:39:19;9.50;55.00
9118;DHT22;4594;50.994;7.126;2023-02-01T09:47:42;9.50;54.50
9118;DHT22;4594;50.994;7.126;2023-02-01T09:50:28;9.60;54.90
9118;DHT22;4594;50.994;7.126;2023-02-01T09:53:09;9.60;54.90
9118;DHT22;4594;50.994;7.126;2023-02-01T09:55:46;9.60;54.70
9118;DHT22;4594;50.994;7.126;2023-02-01T09:58:22;9.60;54.60
9118;DHT22;4594;50.994;7.126;2023-02-01T10:01:04;9.70;55.00
9118;DHT22;4594;50.994;7.126;2023-02-01T10:03:37;9.70;55.30
9118;DHT22;4594;50.994;7.126;2023-02-01T10:12:34;9.80;53.80
9118;DHT22;4594;50.994;7.126;2023-02-01T10:21:45;9.90;54.60
9118;DHT22;4594;50.994;7.126;2023-02-01T10:27:24;9.90;54.20
9118;DHT22;4594;50.994;7.126;2023-02-01T10:29:59;9.90;53.50
9118;DHT22;4594;50.994;7.126;2023-02-01T10:32:31;9.90;54.70
9118;DHT22;4594;50.994;7.126;2023-02-01T10:35:02;10.00;54.10
9118;DHT22;4594;50.994;7.126;2023-02-01T10:37:37;9.90;55.00
9118;DHT22;4594;50.994;7.126;2023-02-01T10:42:57;10.10;53.80
9118;DHT22;4594;50.994;7.126;2023-02-01T10:45:30;10.20;54.30
9118;DHT22;4594;50.994;7.126;2023-02-01T10:47:59;10.30;55.20
9118;DHT22;4594;50.994;7.126;2023-02-01T10:51:05;10.40;55.60
9118;DHT22;4594;50.994;7.126;2023-02-01T10:54:00;10.50;53.90
9118;DHT22;4594;50.994;7.126;2023-02-01T10:56:30;10.70;53.90
9118;DHT22;4594;50.994;7.126;2023-02-01T10:59:05;10.80;56.10
9118;DHT22;4594;50.994;7.126;2023-02-01T11:01:39;10.90;54.70
9118;DHT22;4594;50.994;7.126;2023-02-01T11:04:19;11.00;54.70
9118;DHT22;4594;50.994;7.126;2023-02-01T11:07:04;11.10;53.50
9118;DHT22;4594;50.994;7.126;2023-02-01T11:09:38;11.10;54.20
9118;DHT22;4594;50.994;7.126;2023-02-01T11:12:28;11.20;54.40
9118;DHT22;4594;50.994;7.126;2023-02-01T11:15:20;11.20;52.70
9118;DHT22;4594;50.994;7.126;2023-02-01T11:17:49;11.20;53.80
9118;DHT22;4594;50.994;7.126;2023-02-01T11:20:38;11.20;53.80
9118;DHT22;4594;50.994;7.126;2023-02-01T11:23:11;11.20;52.10
9118;DHT22;4594;50.994;7.126;2023-02-01T11:25:48;11.20;53.70
9118;DHT22;4594;50.994;7.126;2023-02-01T11:28:16;11.20;52.40
9118;DHT22;4594;50.994;7.126;2023-02-01T11:30:45;11.20;53.40
9118;DHT22;4594;50.994;7.126;2023-02-01T11:33:17;11.20;53.30
9118;DHT22;4594;50.994;7.126;2023-02-01T11:35:45;11.20;52.80
9118;DHT22;4594;50.994;7.126;2023-02-01T11:38:26;11.20;53.40
9118;DHT22;4594;50.994;7.126;2023-02-01T11:40:54;11.20;52.30
9118;DHT22;4594;50.994;7.126;2023-02-01T11:43:26;11.10;53.40
9118;DHT22;4594;50.994;7.126;2023-02-01T11:45:57;11.10;52.70
9118;DHT22;4594;50.994;7.126;2023-02-01T11:48:27;11.10;53.30
9118;DHT22;4594;50.994;7.126;2023-02-01T11:54:12;11.20;52.20
9118;DHT22;4594;50.994;7.126;2023-02-01T12:02:57;11.20;51.60
9118;DHT22;4594;50.994;7.126;2023-02-01T12:05:27;11.20;53.40
9118;DHT22;4594;50.994;7.126;2023-02-01T12:08:29;11.20;53.40
9118;DHT22;4594;50.994;7.126;2023-02-01T12:22:22;11.20;52.50
9118;DHT22;4594;50.994;7.126;2023-02-01T12:31:06;11.10;50.50
9118;DHT22;4594;50.994;7.126;2023-02-01T12:40:13;11.00;52.50
9118;DHT22;4594;50.994;7.126;2023-02-01T12:43:20;11.00;51.30
9118;DHT22;4594;50.994;7.126;2023-02-01T12:49:16;11.00;52.30
9118;DHT22;4594;50.994;7.126;2023-02-01T12:51:53;11.00;52.20
9118;DHT22;4594;50.994;7.126;2023-02-01T12:57:27;11.00;51.60
9118;DHT22;4594;50.994;7.126;2023-02-01T13:00:17;11.00;51.80
9118;DHT22;4594;50.994;7.126;2023-02-01T13:06:22;11.00;50.50
9118;DHT22;4594;50.994;7.126;2023-02-01T13:11:44;11.00;50.30
9118;DHT22;4594;50.994;7.126;2023-02-01T13:17:25;10.90;51.50
9118;DHT22;4594;50.994;7.126;2023-02-01T13:20:07;10.90;51.30
9118;DHT22;4594;50.994;7.126;2023-02-01T13:22:41;10.90;50.40
9118;DHT22;4594;50.994;7.126;2023-02-01T13:27:35;10.80;52.00
9118;DHT22;4594;50.994;7.126;2023-02-01T13:36:15;10.70;50.30
9118;DHT22;4594;50.994;7.126;2023-02-01T13:42:47;10.70;51.00
9118;DHT22;4594;50.994;7.126;2023-02-01T13:45:22;10.70;51.80
9118;DHT22;4594;50.994;7.126;2023-02-01T13:47:53;10.70;51.50
9118;DHT22;4594;50.994;7.126;2023-02-01T13:50:34;10.70;52.10
9118;DHT22;4594;50.994;7.126;2023-02-01T13:53:30;10.70;51.30
9118;DHT22;4594;50.994;7.126;2023-02-01T13:56:01;10.70;50.70
9118;DHT22;4594;50.994;7.126;2023-02-01T13:58:35;10.70;52.00
9118;DHT22;4594;50.994;7.126;2023-02-01T14:03:59;10.70;50.60
9118;DHT22;4594;50.994;7.126;2023-02-01T14:11:54;10.70;50.40
9118;DHT22;4594;50.994;7.126;2023-02-01T14:19:27;10.70;51.40
9118;DHT22;4594;50.994;7.126;2023-02-01T14:21:56;10.70;51.60
9118;DHT22;4594;50.994;7.126;2023-02-01T14:24:56;10.70;52.10
9118;DHT22;4594;50.994;7.126;2023-02-01T14:27:35;10.70;51.50
9118;DHT22;4594;50.994;7.126;2023-02-01T14:30:05;10.70;51.00
9118;DHT22;4594;50.994;7.126;2023-02-01T14:32:39;10.70;51.80
9118;DHT22;4594;50.994;7.126;2023-02-01T14:35:16;10.70;52.10
9118;DHT22;4594;50.994;7.126;2023-02-01T14:37:45;10.70;52.00
9118;DHT22;4594;50.994;7.126;2023-02-01T14:40:20;10.70;52.20
9118;DHT22;4594;50.994;7.126;2023-02-01T14:42:52;10.70;51.40
9118;DHT22;4594;50.994;7.126;2023-02-01T14:48:39;10.70;52.00
9118;DHT22;4594;50.994;7.126;2023-02-01T14:50:43;10.70;51.10
9118;DHT22;4594;50.994;7.126;2023-02-01T14:53:17;10.60;51.80
9118;DHT22;4594;50.994;7.126;2023-02-01T14:58:52;10.70;52.20
9118;DHT22;4594;50.994;7.126;2023-02-01T15:01:24;10.70;50.80
9118;DHT22;4594;50.994;7.126;2023-02-01T15:06:51;10.70;52.00
9118;DHT22;4594;50.994;7.126;2023-02-01T15:15:21;10.70;51.20
9118;DHT22;4594;50.994;7.126;2023-02-01T15:17:58;10.70;50.60
9118;DHT22;4594;50.994;7.126;2023-02-01T15:20:32;10.70;51.90
9118;DHT22;4594;50.994;7.126;2023-02-01T15:23:06;10.70;51.20
9118;DHT22;4594;50.994;7.126;2023-02-01T15:25:46;10.70;51.00
9118;DHT22;4594;50.994;7.126;2023-02-01T15:28:16;10.70;51.50
9118;DHT22;4594;50.994;7.126;2023-02-01T15:30:58;10.70;51.40
9118;DHT22;4594;50.994;7.126;2023-02-01T15:33:27;10.70;50.80
9118;DHT22;4594;50.994;7.126;2023-02-01T15:35:55;10.70;52.00
9118;DHT22;4594;50.994;7.126;2023-02-01T15:38:35;10.70;52.20
9118;DHT22;4594;50.994;7.126;2023-02-01T15:46:46;10.70;52.00
9118;DHT22;4594;50.994;7.126;2023-02-01T15:51:52;10.70;51.20
9118;DHT22;4594;50.994;7.126;2023-02-01T15:55:04;10.70;51.90
9118;DHT22;4594;50.994;7.126;2023-02-01T15:57:23;10.70;51.70
9118;DHT22;4594;50.994;7.126;2023-02-01T16:00:01;10.70;51.30
9118;DHT22;4594;50.994;7.126;2023-02-01T16:02:36;10.60;51.70
9118;DHT22;4594;50.994;7.126;2023-02-01T16:05:27;10.60;51.70
9118;DHT22;4594;50.994;7.126;2023-02-01T16:08:20;10.70;50.90
9118;DHT22;4594;50.994;7.126;2023-02-01T16:10:54;10.70;50.80
9118;DHT22;4594;50.994;7.126;2023-02-01T16:13:27;10.70;51.90
9118;DHT22;4594;50.994;7.126;2023-02-01T16:15:53;10.70;52.10
9118;DHT22;4594;50.994;7.126;2023-02-01T16:18:19;10.70;52.10
9118;DHT22;4594;50.994;7.126;2023-02-01T16:20:47;10.60;52.00
9118;DHT22;4594;50.994;7.126;2023-02-01T16:23:13;10.60;51.70
9118;DHT22;4594;50.994;7.126;2023-02-01T16:25:40;10.70;52.20
9118;DHT22;4594;50.994;7.126;2023-02-01T16:28:05;10.70;52.10
9118;DHT22;4594;50.994;7.126;2023-02-01T16:30:32;10.70;52.10
9118;DHT22;4594;50.994;7.126;2023-02-01T16:32:59;10.70;52.10
9118;DHT22;4594;50.994;7.126;2023-02-01T16:35:35;10.70;51.90
9118;DHT22;4594;50.994;7.126;2023-02-01T16:38:04;10.70;51.40
9118;DHT22;4594;50.994;7.126;2023-02-01T16:40:38;10.70;51.90
9118;DHT22;4594;50.994;7.126;2023-02-01T16:43:12;10.70;52.00
9118;DHT22;4594;50.994;7.126;2023-02-01T16:45:40;10.70;51.50
9118;DHT22;4594;50.994;7.126;2023-02-01T16:48:07;10.70;52.00
9118;DHT22;4594;50.994;7.126;2023-02-01T16:50:33;10.70;52.00
9118;DHT22;4594;50.994;7.126;2023-02-01T16:53:01;10.70;52.10
9118;DHT22;4594;50.994;7.126;2023-02-01T16:55:26;10.70;51.70
9118;DHT22;4594;50.994;7.126;2023-02-01T16:57:53;10.70;52.00
9118;DHT22;4594;50.994;7.126;2023-02-01T17:00:19;10.70;52.00
9118;DHT22;4594;50.994;7.126;2023-02-01T17:02:45;10.70;52.00
9118;DHT22;4594;50.994;7.126;2023-02-01T17:05:12;10.70;52.00
9118;DHT22;4594;50.994;7.126;2023-02-01T17:07:38;10.70;52.00
9118;DHT22;4594;50.994;7.126;2023-02-01T17:10:06;10.70;52.00
9118;DHT22;4594;50.994;7.126;2023-02-01T17:12:40;10.70;52.20
9118;DHT22;4594;50.994;7.126;2023-02-01T17:15:06;10.70;52.10
9118;DHT22;4594;50.994;7.126;2023-02-01T17:17:36;10.70;52.20
9118;DHT22;4594;50.994;7.126;2023-02-01T17:20:04;10.70;51.70
9118;DHT22;4594;50.994;7.126;2023-02-01T17:22:31;10.70;52.10
9118;DHT22;4594;50.994;7.126;2023-02-01T17:24:57;10.70;52.20
9118;DHT22;4594;50.994;7.126;2023-02-01T17:27:23;10.70;52.20
9118;DHT22;4594;50.994;7.126;2023-02-01T17:29:49;10.70;52.20
9118;DHT22;4594;50.994;7.126;2023-02-01T17:32:19;10.70;52.20
9118;DHT22;4594;50.994;7.126;2023-02-01T17:34:48;10.70;51.80
9118;DHT22;4594;50.994;7.126;2023-02-01T17:37:25;10.70;52.30
9118;DHT22;4594;50.994;7.126;2023-02-01T17:39:55;10.70;51.50
9118;DHT22;4594;50.994;7.126;2023-02-01T17:42:25;10.70;52.40
9118;DHT22;4594;50.994;7.126;2023-02-01T17:45:01;10.70;52.30
9118;DHT22;4594;50.994;7.126;2023-02-01T17:47:38;10.80;52.00
9118;DHT22;4594;50.994;7.126;2023-02-01T17:50:04;10.80;52.40
9118;DHT22;4594;50.994;7.126;2023-02-01T17:52:32;10.70;52.20
9118;DHT22;4594;50.994;7.126;2023-02-01T17:55:00;10.80;52.30
9118;DHT22;4594;50.994;7.126;2023-02-01T17:57:28;10.70;52.20
9118;DHT22;4594;50.994;7.126;2023-02-01T17:59:53;10.70;52.20
9118;DHT22;4594;50.994;7.126;2023-02-01T18:02:21;10.70;52.20
9118;DHT22;4594;50.994;7.126;2023-02-01T18:04:49;10.70;52.10
9118;DHT22;4594;50.994;7.126;2023-02-01T18:07:16;10.70;52.20
9118;DHT22;4594;50.994;7.126;2023-02-01T18:09:42;10.70;52.20
9118;DHT22;4594;50.994;7.126;2023-02-01T18:12:18;10.70;52.30
9118;DHT22;4594;50.994;7.126;2023-02-01T18:14:46;10.70;51.30
9118;DHT22;4594;50.994;7.126;2023-02-01T18:17:12;10.70;52.30
9118;DHT22;4594;50.994;7.126;2023-02-01T18:19:38;10.70;52.30
9118;DHT22;4594;50.994;7.126;2023-02-01T18:22:04;10.60;52.20
9118;DHT22;4594;50.994;7.126;2023-02-01T18:24:30;10.60;52.20
9118;DHT22;4594;50.994;7.126;2023-02-01T18:26:59;10.60;52.20
9118;DHT22;4594;50.994;7.126;2023-02-01T18:29:25;10.60;52.30
9118;DHT22;4594;50.994;7.126;2023-02-01T18:31:51;10.60;52.40
9118;DHT22;4594;50.994;7.126;2023-02-01T18:34:16;10.60;52.30
9118;DHT22;4594;50.994;7.126;2023-02-01T18:36:47;10.70;52.40
9118;DHT22;4594;50.994;7.126;2023-02-01T18:39:14;10.60;52.30
9118;DHT22;4594;50.994;7.126;2023-02-01T18:41:40;10.60;52.40
9118;DHT22;4594;50.994;7.126;2023-02-01T18:44:14;10.60;52.30
9118;DHT22;4594;50.994;7.126;2023-02-01T18:46:41;10.70;52.40
9118;DHT22;4594;50.994;7.126;2023-02-01T18:49:07;10.60;52.30
9118;DHT22;4594;50.994;7.126;2023-02-01T18:51:34;10.60;52.40
9118;DHT22;4594;50.994;7.126;2023-02-01T18:53:59;10.60;52.40
9118;DHT22;4594;50.994;7.126;2023-02-01T18:56:25;10.60;52.40
9118;DHT22;4594;50.994;7.126;2023-02-01T18:58:51;10.60;52.40
9118;DHT22;4594;50.994;7.126;2023-02-01T19:01:18;10.50;52.30
9118;DHT22;4594;50.994;7.126;2023-02-01T19:03:47;10.50;52.30